Time;durP1;ratioP1;P1;durP2;ratioP2;P2;SDS_P1;SDS_P2;PMS_P1;PMS_P2;Temp;Humidity;BMP_temperature;BMP_pressure;BME280_temperature;BME280_humidity;BME280_pressure;Samples;Min_cycle;Max_cycle;Signal;HPM_P1;HPM_P2
2021/04/26 00:01:24;;;;;;;;;;;;;;;;;;4916790;29;20296;-54
2021/04/26 00:03:50;;;;;;;;;;;;;;;;;;4918003;29;20001;-54
2021/04/26 00:06:15;;;;;;;;;;;;;;;;;;4919314;29;20053;-56
2021/04/26 00:08:41;;;;;;;;;;;;;;;;;;4917139;29;19917;-56
2021/04/26 00:11:06;;;;;;;;;;;;;;;;;;4916391;29;20378;-55
2021/04/26 00:13:31;;;;;;;;;;;;;;;;;;4915453;29;19986;-54
2021/04/26 00:15:56;;;;;;;;;;;;;;;;;;4915642;29;19918;-54
2021/04/26 00:18:21;;;;;;;;;;;;;;;;;;4914291;29;19914;-55
2021/04/26 00:20:47;;;;;;;;;;;;;;;;;;4913600;29;19926;-56
2021/04/26 00:23:12;;;;;;;;;;;;;;;;;;4914172;29;20059;-56
2021/04/26 00:25:37;;;;;;;;;;;;;;;;;;4915234;29;19914;-54
2021/04/26 00:28:02;;;;;;;;;;;;;;;;;;4915506;29;19915;-53
2021/04/26 00:30:28;;;;;;;;;;;;;;;;;;4916398;29;20324;-55
2021/04/26 00:32:53;;;;;;;;;;;;;;;;;;4916606;29;19990;-55
2021/04/26 00:35:18;;;;;;;;;;;;;;;;;;4915572;29;19962;-56
2021/04/26 00:37:43;;;;;;;;;;;;;;;;;;4916373;29;20002;-56
2021/04/26 00:40:08;;;;;;;;;;;;;;;;;;4916308;29;19915;-56
2021/04/26 00:42:34;;;;;;;;;;;;;;;;;;4914804;29;19911;-54
2021/04/26 00:44:59;;;;;;;;;;;;;;;;;;4915114;29;19923;-56
2021/04/26 00:47:24;;;;;;;;;;;;;;;;;;4915362;29;19962;-56
2021/04/26 00:49:50;;;;;;;;;;;;;;;;;;4916195;29;19907;-55
2021/04/26 00:52:15;;;;;;;;;;;;;;;;;;4916643;29;20363;-55
2021/04/26 00:54:40;;;;;;;;;;;;;;;;;;4915921;29;19911;-57
2021/04/26 00:57:05;;;;;;;;;;;;;;;;;;4899320;29;19917;-55
2021/04/26 00:59:31;;;;;;;;;;;;;;;;;;4914896;29;19917;-55
2021/04/26 01:01:56;;;;;;;;;;;;;;;;;;4914919;29;19919;-55
2021/04/26 01:04:21;;;;;;;;;;;;;;;;;;4915386;29;19922;-57
2021/04/26 01:06:47;;;;;;;;;;;;;;;;;;4916890;29;19987;-55
2021/04/26 01:09:12;;;;;;;;;;;;;;;;;;4915244;29;19965;-56
2021/04/26 01:11:43;;;;;;;;;;;;;;;;;;4916083;29;19919;-55
2021/04/26 01:14:09;;;;;;;;;;;;;;;;;;4915177;29;20053;-56
2021/04/26 01:16:34;;;;;;;;;;;;;;;;;;4914554;29;19966;-56
2021/04/26 01:19:01;;;;;;;;;;;;;;;;;;4899543;29;19907;-56
2021/04/26 01:21:26;;;;;;;;;;;;;;;;;;4918514;29;19917;-56
2021/04/26 01:23:51;;;;;;;;;;;;;;;;;;4918375;29;20643;-55
2021/04/26 01:26:17;;;;;;;;;;;;;;;;;;4918256;29;19963;-55
2021/04/26 01:28:43;;;;;;;;;;;;;;;;;;4920032;29;19919;-55
2021/04/26 01:31:08;;;;;;;;;;;;;;;;;;4919411;29;19919;-57
2021/04/26 01:33:42;;;;;;;;;;;;;;;;;;4918273;29;19911;-55
2021/04/26 01:36:07;;;;;;;;;;;;;;;;;;4918362;29;19919;-53
2021/04/26 01:38:40;;;;;;;;;;;;;;;;;;4918098;29;20402;-55
2021/04/26 01:41:06;;;;;;;;;;;;;;;;;;4918526;29;19955;-54
2021/04/26 01:43:31;;;;;;;;;;;;;;;;;;4919674;29;19934;-56
2021/04/26 01:45:56;;;;;;;;;;;;;;;;;;4917938;29;19912;-57
2021/04/26 01:48:24;;;;;;;;;;;;;;;;;;4918187;29;19937;-57
2021/04/26 01:50:52;;;;;;;;;;;;;;;;;;4917480;29;19966;-56
2021/04/26 01:53:17;;;;;;;;;;;;;;;;;;4918088;29;19907;-56
2021/04/26 01:55:42;;;;;;;;;;;;;;;;;;4917947;29;19966;-58
2021/04/26 01:58:08;;;;;;;;;;;;;;;;;;4918046;29;19954;-55
2021/04/26 02:00:36;;;;;;;;;;;;;;;;;;4917799;29;19911;-56
2021/04/26 02:03:08;;;;;;;;;;;;;;;;;;4917565;29;19919;-54
2021/04/26 02:05:43;;;;;;;;;;;;;;;;;;4917708;29;19911;-55
2021/04/26 02:08:11;;;;;;;;;;;;;;;;;;4902119;29;20376;-55
2021/04/26 02:10:43;;;;;;;;;;;;;;;;;;4917580;29;19967;-56
2021/04/26 02:13:10;;;;;;;;;;;;;;;;;;4919132;29;19915;-55
2021/04/26 02:15:35;;;;;;;;;;;;;;;;;;4917677;29;19915;-55
2021/04/26 02:18:00;;;;;;;;;;;;;;;;;;4918764;29;19911;-55
2021/04/26 02:20:25;;;;;;;;;;;;;;;;;;4917598;29;19911;-56
2021/04/26 02:22:51;;;;;;;;;;;;;;;;;;4918714;29;19911;-55
2021/04/26 02:25:16;;;;;;;;;;;;;;;;;;4917517;29;19978;-54
2021/04/26 02:27:41;;;;;;;;;;;;;;;;;;4918533;29;19962;-55
2021/04/26 02:30:06;;;;;;;;;;;;;;;;;;4917437;29;19946;-54
2021/04/26 02:32:32;;;;;;;;;;;;;;;;;;4918691;29;19915;-54
2021/04/26 02:35:16;;;;;;;;;;;;;;;;;;4918490;29;19978;-54
2021/04/26 02:37:41;;;;;;;;;;;;;;;;;;4917066;29;20351;-56
2021/04/26 02:40:06;;;;;;;;;;;;;;;;;;4917135;29;19933;-54
2021/04/26 02:42:32;;;;;;;;;;;;;;;;;;4902766;29;19963;-57
2021/04/26 02:44:58;;;;;;;;;;;;;;;;;;4918317;29;19919;-55
2021/04/26 02:47:24;;;;;;;;;;;;;;;;;;4917262;29;19942;-55
2021/04/26 02:50:05;;;;;;;;;;;;;;;;;;4916844;29;20429;-54
2021/04/26 02:52:35;;;;;;;;;;;;;;;;;;4916907;29;20368;-55
2021/04/26 02:55:00;;;;;;;;;;;;;;;;;;4916759;29;19918;-56
2021/04/26 02:57:26;;;;;;;;;;;;;;;;;;4916918;29;20348;-54
2021/04/26 02:59:51;;;;;;;;;;;;;;;;;;4916431;29;19911;-54
2021/04/26 03:02:17;;;;;;;;;;;;;;;;;;4916859;29;19929;-56
2021/04/26 03:04:59;;;;;;;;;;;;;;;;;;4916880;29;19911;-55
2021/04/26 03:07:24;;;;;;;;;;;;;;;;;;4916680;29;19954;-56
2021/04/26 03:09:55;;;;;;;;;;;;;;;;;;4916516;29;20291;-55
2021/04/26 03:12:22;;;;;;;;;;;;;;;;;;4916854;29;19998;-55
2021/04/26 03:14:47;;;;;;;;;;;;;;;;;;4916626;29;20338;-55
2021/04/26 03:17:12;;;;;;;;;;;;;;;;;;4917967;29;19918;-55
2021/04/26 03:19:42;;;;;;;;;;;;;;;;;;4916663;29;19907;-54
2021/04/26 03:22:07;;;;;;;;;;;;;;;;;;4917605;29;19918;-55
2021/04/26 03:24:33;;;;;;;;;;;;;;;;;;4900755;29;20005;-54
2021/04/26 03:26:58;;;;;;;;;;;;;;;;;;4917570;29;20014;-55
2021/04/26 03:29:24;;;;;;;;;;;;;;;;;;4916535;29;20373;-54
2021/04/26 03:31:50;;;;;;;;;;;;;;;;;;4916135;29;19919;-55
2021/04/26 03:34:18;;;;;;;;;;;;;;;;;;4917256;29;20368;-56
2021/04/26 03:36:44;;;;;;;;;;;;;;;;;;4916265;29;19958;-54
2021/04/26 03:39:09;;;;;;;;;;;;;;;;;;4917334;29;19911;-54
2021/04/26 03:41:35;;;;;;;;;;;;;;;;;;4916200;29;19919;-54
2021/04/26 03:44:01;;;;;;;;;;;;;;;;;;4915440;29;19911;-55
2021/04/26 03:46:31;;;;;;;;;;;;;;;;;;4916358;29;20358;-57
2021/04/26 03:49:22;;;;;;;;;;;;;;;;;;4909155;29;19911;-55
2021/04/26 03:52:11;;;;;;;;;;;;;;;;;;4906992;29;19919;-53
2021/04/26 03:54:56;;;;;;;;;;;;;;;;;;4916560;29;19918;-54
2021/04/26 03:57:21;;;;;;;;;;;;;;;;;;4915939;29;19911;-55
2021/04/26 03:59:47;;;;;;;;;;;;;;;;;;4900114;29;19907;-54
2021/04/26 04:02:12;;;;;;;;;;;;;;;;;;4914846;29;20320;-57
2021/04/26 04:04:41;;;;;;;;;;;;;;;;;;4917256;29;20386;-58
2021/04/26 04:07:27;;;;;;;;;;;;;;;;;;4906051;29;19911;-55
2021/04/26 04:10:10;;;;;;;;;;;;;;;;;;4915641;29;19931;-55
2021/04/26 04:13:08;;;;;;;;;;;;;;;;;;4916351;29;19911;-56
2021/04/26 04:15:33;;;;;;;;;;;;;;;;;;4915780;29;20373;-59
2021/04/26 04:17:59;;;;;;;;;;;;;;;;;;4916316;29;20069;-63
2021/04/26 04:20:29;;;;;;;;;;;;;;;;;;4900522;29;20312;-55
2021/04/26 04:22:54;;;;;;;;;;;;;;;;;;4914936;29;19966;-56
2021/04/26 04:25:19;;;;;;;;;;;;;;;;;;4915444;29;19915;-56
2021/04/26 04:27:46;;;;;;;;;;;;;;;;;;4915788;29;19950;-56
2021/04/26 04:30:11;;;;;;;;;;;;;;;;;;4916402;29;20261;-56
2021/04/26 04:32:55;;;;;;;;;;;;;;;;;;4916504;29;19914;-57
2021/04/26 04:35:29;;;;;;;;;;;;;;;;;;4916437;29;19911;-55
2021/04/26 04:38:33;;;;;;;;;;;;;;;;;;4895353;29;19912;-55
2021/04/26 04:41:18;;;;;;;;;;;;;;;;;;4894869;29;20475;-57
2021/04/26 04:43:43;;;;;;;;;;;;;;;;;;4907740;29;19966;-56
2021/04/26 04:46:09;;;;;;;;;;;;;;;;;;4916029;29;19918;-57
2021/04/26 04:48:39;;;;;;;;;;;;;;;;;;4915506;29;19926;-55
2021/04/26 04:51:09;;;;;;;;;;;;;;;;;;4914529;29;19934;-55
2021/04/26 04:53:36;;;;;;;;;;;;;;;;;;4916631;29;19910;-54
2021/04/26 04:56:01;;;;;;;;;;;;;;;;;;4918094;29;19910;-55
2021/04/26 04:58:34;;;;;;;;;;;;;;;;;;4920526;29;19922;-57
2021/04/26 05:01:00;;;;;;;;;;;;;;;;;;4918893;29;20268;-55
2021/04/26 05:03:54;;;;;;;;;;;;;;;;;;4882546;29;20400;-53
2021/04/26 05:06:38;;;;;;;;;;;;;;;;;;4901288;29;20315;-55
2021/04/26 05:09:22;;;;;;;;;;;;;;;;;;4901386;29;20437;-55
2021/04/26 05:12:20;;;;;;;;;;;;;;;;;;4889350;29;20313;-57
2021/04/26 05:14:49;;;;;;;;;;;;;;;;;;4901267;29;20029;-56
2021/04/26 05:17:14;;;;;;;;;;;;;;;;;;4900605;29;19916;-55
2021/04/26 05:19:39;;;;;;;;;;;;;;;;;;4901181;29;19919;-55
2021/04/26 05:22:05;;;;;;;;;;;;;;;;;;4900588;29;20364;-56
2021/04/26 05:24:31;;;;;;;;;;;;;;;;;;4915427;29;20313;-55
2021/04/26 05:26:56;;;;;;;;;;;;;;;;;;4900980;29;19908;-55
2021/04/26 05:29:22;;;;;;;;;;;;;;;;;;4914812;29;20356;-57
2021/04/26 05:31:47;;;;;;;;;;;;;;;;;;4899552;29;20395;-55
2021/04/26 05:34:12;;;;;;;;;;;;;;;;;;4900407;29;19911;-53
2021/04/26 05:36:39;;;;;;;;;;;;;;;;;;4915099;29;20002;-55
2021/04/26 05:39:05;;;;;;;;;;;;;;;;;;4899266;29;19919;-54
2021/04/26 05:41:32;;;;;;;;;;;;;;;;;;4915029;29;20412;-55
2021/04/26 05:43:58;;;;;;;;;;;;;;;;;;4915141;29;19911;-55
2021/04/26 05:46:29;;;;;;;;;;;;;;;;;;4915117;29;19912;-55
2021/04/26 05:48:54;;;;;;;;;;;;;;;;;;4900366;29;19918;-54
2021/04/26 05:51:20;;;;;;;;;;;;;;;;;;4900285;29;20007;-55
2021/04/26 05:53:45;;;;;;;;;;;;;;;;;;4900761;29;20331;-56
2021/04/26 05:56:10;;;;;;;;;;;;;;;;;;4900198;29;20261;-57
2021/04/26 05:58:35;;;;;;;;;;;;;;;;;;4900816;29;19912;-55
2021/04/26 06:01:01;;;;;;;;;;;;;;;;;;4914780;29;19911;-56
2021/04/26 06:03:26;;;;;;;;;;;;;;;;;;4898590;29;19919;-55
2021/04/26 06:05:51;;;;;;;;;;;;;;;;;;4900194;29;19918;-56
2021/04/26 06:08:16;;;;;;;;;;;;;;;;;;4914507;29;20010;-56
2021/04/26 06:10:41;;;;;;;;;;;;;;;;;;4900204;29;20264;-56
2021/04/26 06:13:07;;;;;;;;;;;;;;;;;;4899713;29;19934;-56
2021/04/26 06:15:32;;;;;;;;;;;;;;;;;;4900229;29;20089;-55
2021/04/26 06:17:57;;;;;;;;;;;;;;;;;;4900037;29;19912;-57
2021/04/26 06:20:22;;;;;;;;;;;;;;;;;;4899860;29;20280;-55
2021/04/26 06:22:48;;;;;;;;;;;;;;;;;;4898833;29;20356;-56
2021/04/26 06:25:13;;;;;;;;;;;;;;;;;;4899730;29;20391;-56
2021/04/26 06:27:38;;;;;;;;;;;;;;;;;;4899940;29;19968;-56
2021/04/26 06:30:03;;;;;;;;;;;;;;;;;;4899892;29;19915;-55
2021/04/26 06:32:28;;;;;;;;;;;;;;;;;;4899919;29;19911;-57
2021/04/26 06:34:54;;;;;;;;;;;;;;;;;;4899005;29;20360;-56
2021/04/26 06:37:19;;;;;;;;;;;;;;;;;;4898186;29;20420;-55
2021/04/26 06:39:44;;;;;;;;;;;;;;;;;;4899728;29;19911;-55
2021/04/26 06:42:09;;;;;;;;;;;;;;;;;;4898187;29;19912;-54
2021/04/26 06:44:35;;;;;;;;;;;;;;;;;;4899401;29;20363;-54
2021/04/26 06:47:00;;;;;;;;;;;;;;;;;;4899401;29;19911;-55
2021/04/26 06:49:25;;;;;;;;;;;;;;;;;;4899022;29;19918;-57
2021/04/26 06:51:50;;;;;;;;;;;;;;;;;;4899392;29;19964;-56
2021/04/26 06:54:15;;;;;;;;;;;;;;;;;;4913538;29;19919;-55
2021/04/26 06:56:41;;;;;;;;;;;;;;;;;;4913863;29;19911;-56
2021/04/26 06:59:06;;;;;;;;;;;;;;;;;;4899622;29;19927;-56
2021/04/26 07:01:32;;;;;;;;;;;;;;;;;;4913632;29;20014;-55
2021/04/26 07:03:57;;;;;;;;;;;;;;;;;;4913388;29;19935;-55
2021/04/26 07:06:22;;;;;;;;;;;;;;;;;;4897770;29;19959;-55
2021/04/26 07:08:48;;;;;;;;;;;;;;;;;;4899197;29;19918;-55
2021/04/26 07:11:13;;;;;;;;;;;;;;;;;;4898950;29;20289;-60
2021/04/26 07:13:38;;;;;;;;;;;;;;;;;;4897572;29;19943;-56
2021/04/26 07:16:04;;;;;;;;;;;;;;;;;;4898789;29;19915;-55
2021/04/26 07:18:29;;;;;;;;;;;;;;;;;;4897807;29;19919;-56
2021/04/26 07:20:54;;;;;;;;;;;;;;;;;;4898921;29;20010;-54
2021/04/26 07:23:19;;;;;;;;;;;;;;;;;;4898328;29;19911;-55
2021/04/26 07:25:45;;;;;;;;;;;;;;;;;;4899032;29;19911;-55
2021/04/26 07:28:10;;;;;;;;;;;;;;;;;;4899633;29;19915;-55
2021/04/26 07:30:35;;;;;;;;;;;;;;;;;;4913226;29;19926;-54
2021/04/26 07:33:00;;;;;;;;;;;;;;;;;;4897517;29;19937;-55
2021/04/26 07:35:25;;;;;;;;;;;;;;;;;;4898333;29;19915;-56
2021/04/26 07:37:51;;;;;;;;;;;;;;;;;;4898368;29;19933;-55
2021/04/26 07:40:16;;;;;;;;;;;;;;;;;;4912441;29;19911;-54
2021/04/26 07:42:41;;;;;;;;;;;;;;;;;;4900106;29;19912;-54
2021/04/26 07:45:06;;;;;;;;;;;;;;;;;;4898589;29;20006;-54
2021/04/26 07:47:32;;;;;;;;;;;;;;;;;;4907701;29;20021;-53
2021/04/26 07:49:57;;;;;;;;;;;;;;;;;;4916885;29;19966;-54
2021/04/26 07:52:22;;;;;;;;;;;;;;;;;;4915998;29;19923;-56
2021/04/26 07:54:47;;;;;;;;;;;;;;;;;;4916616;29;19919;-56
2021/04/26 07:57:13;;;;;;;;;;;;;;;;;;4916468;29;19911;-55
2021/04/26 07:59:38;;;;;;;;;;;;;;;;;;4916308;29;20320;-56
2021/04/26 08:02:03;;;;;;;;;;;;;;;;;;4916572;29;19922;-55
2021/04/26 08:04:29;;;;;;;;;;;;;;;;;;4916960;29;19919;-55
2021/04/26 08:06:54;;;;;;;;;;;;;;;;;;4917118;29;19915;-55
2021/04/26 08:09:20;;;;;;;;;;;;;;;;;;4916703;29;19966;-55
2021/04/26 08:11:45;;;;;;;;;;;;;;;;;;4916751;29;20001;-56
2021/04/26 08:14:10;;;;;;;;;;;;;;;;;;4917511;29;19911;-55
2021/04/26 08:16:35;;;;;;;;;;;;;;;;;;4915447;29;20379;-55
2021/04/26 08:19:01;;;;;;;;;;;;;;;;;;4916940;29;19961;-55
2021/04/26 08:21:26;;;;;;;;;;;;;;;;;;4915114;29;19927;-55
2021/04/26 08:23:53;;;;;;;;;;;;;;;;;;4917259;29;19911;-56
2021/04/26 08:26:18;;;;;;;;;;;;;;;;;;4916320;29;19930;-54
2021/04/26 08:28:44;;;;;;;;;;;;;;;;;;4915670;29;20229;-54
2021/04/26 08:31:09;;;;;;;;;;;;;;;;;;4915205;29;19919;-56
2021/04/26 08:33:34;;;;;;;;;;;;;;;;;;4915085;29;20289;-57
2021/04/26 08:35:59;;;;;;;;;;;;;;;;;;4916581;29;19911;-55
2021/04/26 08:38:25;;;;;;;;;;;;;;;;;;4916163;29;19930;-57
2021/04/26 08:40:50;;;;;;;;;;;;;;;;;;4915627;29;20002;-55
2021/04/26 08:43:15;;;;;;;;;;;;;;;;;;4915480;29;19915;-57
2021/04/26 08:45:40;;;;;;;;;;;;;;;;;;4915089;29;20327;-55
2021/04/26 08:48:05;;;;;;;;;;;;;;;;;;4914913;29;19915;-55
2021/04/26 08:50:31;;;;;;;;;;;;;;;;;;4914540;29;20381;-58
2021/04/26 08:52:56;;;;;;;;;;;;;;;;;;4914886;29;20257;-56
2021/04/26 08:55:21;;;;;;;;;;;;;;;;;;4912983;29;19918;-55
2021/04/26 08:57:46;;;;;;;;;;;;;;;;;;4915033;29;20359;-56
2021/04/26 09:00:12;;;;;;;;;;;;;;;;;;4914653;29;19977;-56
2021/04/26 09:02:37;;;;;;;;;;;;;;;;;;4914554;29;19911;-57
2021/04/26 09:05:02;;;;;;;;;;;;;;;;;;4915592;29;20293;-54
2021/04/26 09:07:27;;;;;;;;;;;;;;;;;;4914913;29;20010;-56
2021/04/26 09:09:53;;;;;;;;;;;;;;;;;;4913466;29;19918;-56
2021/04/26 09:12:18;;;;;;;;;;;;;;;;;;4913495;29;19922;-56
2021/04/26 09:14:43;;;;;;;;;;;;;;;;;;4913989;29;20026;-56
2021/04/26 09:17:08;;;;;;;;;;;;;;;;;;4913782;29;20364;-56
2021/04/26 09:19:33;;;;;;;;;;;;;;;;;;4913672;29;20394;-55
2021/04/26 09:21:59;;;;;;;;;;;;;;;;;;4914423;29;19910;-56
2021/04/26 09:24:25;;;;;;;;;;;;;;;;;;4914011;29;19962;-55
2021/04/26 09:26:50;;;;;;;;;;;;;;;;;;4914145;29;19933;-55
2021/04/26 09:29:15;;;;;;;;;;;;;;;;;;4914551;29;19915;-56
2021/04/26 09:31:40;;;;;;;;;;;;;;;;;;4915893;29;20026;-57
2021/04/26 09:34:06;;;;;;;;;;;;;;;;;;4916189;29;19911;-56
2021/04/26 09:36:32;;;;;;;;;;;;;;;;;;4914580;29;19919;-57
2021/04/26 09:39:00;;;;;;;;;;;;;;;;;;4914665;29;19923;-56
2021/04/26 09:41:25;;;;;;;;;;;;;;;;;;4917686;29;19988;-56
2021/04/26 09:43:50;;;;;;;;;;;;;;;;;;4919307;29;19919;-57
2021/04/26 09:46:15;;;;;;;;;;;;;;;;;;4918266;29;19911;-57
2021/04/26 09:48:41;;;;;;;;;;;;;;;;;;4919274;29;19918;-56
2021/04/26 09:51:06;;;;;;;;;;;;;;;;;;4918988;29;20426;-56
2021/04/26 09:53:31;;;;;;;;;;;;;;;;;;4919175;29;20388;-55
2021/04/26 09:55:57;;;;;;;;;;;;;;;;;;4919369;29;19907;-57
2021/04/26 09:58:22;;;;;;;;;;;;;;;;;;4919300;29;19951;-57
2021/04/26 10:00:47;;;;;;;;;;;;;;;;;;4918781;29;19919;-57
2021/04/26 10:03:12;;;;;;;;;;;;;;;;;;4918827;29;19923;-57
2021/04/26 10:05:38;;;;;;;;;;;;;;;;;;4917480;29;20343;-56
2021/04/26 10:08:03;;;;;;;;;;;;;;;;;;4918893;29;20009;-57
2021/04/26 10:10:28;;;;;;;;;;;;;;;;;;4918827;29;19985;-57
2021/04/26 10:12:54;;;;;;;;;;;;;;;;;;4918894;29;19962;-57
2021/04/26 10:15:19;;;;;;;;;;;;;;;;;;4917834;29;19915;-56
2021/04/26 10:17:44;;;;;;;;;;;;;;;;;;4918786;29;20217;-57
2021/04/26 10:20:09;;;;;;;;;;;;;;;;;;4918789;29;19937;-57
2021/04/26 10:22:35;;;;;;;;;;;;;;;;;;4918742;29;19990;-57
2021/04/26 10:25:01;;;;;;;;;;;;;;;;;;4918949;29;19911;-57
2021/04/26 10:27:26;;;;;;;;;;;;;;;;;;4917410;29;19910;-57
2021/04/26 10:29:51;;;;;;;;;;;;;;;;;;4915673;29;20355;-59
2021/04/26 10:32:16;;;;;;;;;;;;;;;;;;4918723;29;19935;-58
2021/04/26 10:34:42;;;;;;;;;;;;;;;;;;4915710;29;19911;-58
2021/04/26 10:37:07;;;;;;;;;;;;;;;;;;4917086;29;19946;-57
2021/04/26 10:39:32;;;;;;;;;;;;;;;;;;4918260;29;19911;-56
2021/04/26 10:41:58;;;;;;;;;;;;;;;;;;4918777;29;19927;-57
2021/04/26 10:44:24;;;;;;;;;;;;;;;;;;4918279;29;19974;-57
2021/04/26 10:46:49;;;;;;;;;;;;;;;;;;4918069;29;19915;-57
2021/04/26 10:49:14;;;;;;;;;;;;;;;;;;4917777;29;19914;-58
2021/04/26 10:51:39;;;;;;;;;;;;;;;;;;4918219;29;19919;-58
2021/04/26 10:54:05;;;;;;;;;;;;;;;;;;4918403;29;19959;-57
2021/04/26 10:56:30;;;;;;;;;;;;;;;;;;4918246;29;20308;-55
2021/04/26 10:58:55;;;;;;;;;;;;;;;;;;4917767;29;19910;-58
2021/04/26 11:01:20;;;;;;;;;;;;;;;;;;4918264;29;19911;-59
2021/04/26 11:03:46;;;;;;;;;;;;;;;;;;4918002;29;20005;-57
2021/04/26 11:06:11;;;;;;;;;;;;;;;;;;4918107;29;19911;-57
2021/04/26 11:08:42;;;;;;;;;;;;;;;;;;4917654;29;19993;-58
2021/04/26 11:11:14;;;;;;;;;;;;;;;;;;4917792;29;20009;-56
2021/04/26 11:13:40;;;;;;;;;;;;;;;;;;4917222;29;19958;-58
2021/04/26 11:16:05;;;;;;;;;;;;;;;;;;4918045;29;20364;-58
2021/04/26 11:18:30;;;;;;;;;;;;;;;;;;4917662;29;19926;-57
2021/04/26 11:20:55;;;;;;;;;;;;;;;;;;4917218;29;19930;-57
2021/04/26 11:23:21;;;;;;;;;;;;;;;;;;4917580;29;19911;-58
2021/04/26 11:25:46;;;;;;;;;;;;;;;;;;4916300;29;20014;-58
2021/04/26 11:28:14;;;;;;;;;;;;;;;;;;4917207;29;19911;-58
2021/04/26 11:30:39;;;;;;;;;;;;;;;;;;4917481;29;19919;-58
2021/04/26 11:33:05;;;;;;;;;;;;;;;;;;4917752;29;19911;-59
2021/04/26 11:35:30;;;;;;;;;;;;;;;;;;4917330;29;19911;-58
2021/04/26 11:37:55;;;;;;;;;;;;;;;;;;4917149;29;19911;-59
2021/04/26 11:40:21;;;;;;;;;;;;;;;;;;4917526;29;19917;-58
2021/04/26 11:42:46;;;;;;;;;;;;;;;;;;4916845;29;19911;-58
2021/04/26 11:45:11;;;;;;;;;;;;;;;;;;4916937;29;19915;-59
2021/04/26 11:47:36;;;;;;;;;;;;;;;;;;4916915;29;20071;-58
2021/04/26 11:50:02;;;;;;;;;;;;;;;;;;4914992;29;20339;-59
2021/04/26 11:52:27;;;;;;;;;;;;;;;;;;4916833;29;20228;-57
2021/04/26 11:54:52;;;;;;;;;;;;;;;;;;4916973;29;20011;-57
2021/04/26 11:57:21;;;;;;;;;;;;;;;;;;4916962;29;19915;-56
2021/04/26 11:59:47;;;;;;;;;;;;;;;;;;4916174;29;20336;-57
2021/04/26 12:02:12;;;;;;;;;;;;;;;;;;4916501;29;19998;-58
2021/04/26 12:04:37;;;;;;;;;;;;;;;;;;4915914;29;20000;-57
2021/04/26 12:07:03;;;;;;;;;;;;;;;;;;4916644;29;19921;-58
2021/04/26 12:09:28;;;;;;;;;;;;;;;;;;4916731;29;20018;-58
2021/04/26 12:11:53;;;;;;;;;;;;;;;;;;4916137;29;20435;-58
2021/04/26 12:14:18;;;;;;;;;;;;;;;;;;4916388;29;19911;-58
2021/04/26 12:16:43;;;;;;;;;;;;;;;;;;4916417;29;19919;-58
2021/04/26 12:19:09;;;;;;;;;;;;;;;;;;4916462;29;20359;-57
2021/04/26 12:21:34;;;;;;;;;;;;;;;;;;4916401;29;20286;-58
2021/04/26 12:23:59;;;;;;;;;;;;;;;;;;4916222;29;20315;-58
2021/04/26 12:26:24;;;;;;;;;;;;;;;;;;4916263;29;20356;-57
2021/04/26 12:28:50;;;;;;;;;;;;;;;;;;4915404;29;20366;-58
2021/04/26 12:31:15;;;;;;;;;;;;;;;;;;4916777;29;20309;-58
2021/04/26 12:33:40;;;;;;;;;;;;;;;;;;4916222;29;19949;-56
2021/04/26 12:36:07;;;;;;;;;;;;;;;;;;4916625;29;19911;-58
2021/04/26 12:38:35;;;;;;;;;;;;;;;;;;4915485;29;19910;-58
2021/04/26 12:41:00;;;;;;;;;;;;;;;;;;4916266;29;20248;-56
2021/04/26 12:43:25;;;;;;;;;;;;;;;;;;4916615;29;19911;-59
2021/04/26 12:45:51;;;;;;;;;;;;;;;;;;4916106;29;20283;-58
2021/04/26 12:48:16;;;;;;;;;;;;;;;;;;4916190;29;19917;-58
2021/04/26 12:50:41;;;;;;;;;;;;;;;;;;4916209;29;20399;-58
2021/04/26 12:53:07;;;;;;;;;;;;;;;;;;4915138;29;19911;-57
2021/04/26 12:55:32;;;;;;;;;;;;;;;;;;4915270;29;19911;-58
2021/04/26 12:57:57;;;;;;;;;;;;;;;;;;4915465;29;19910;-56
2021/04/26 13:00:22;;;;;;;;;;;;;;;;;;4916320;29;19958;-58
2021/04/26 13:02:47;;;;;;;;;;;;;;;;;;4916238;29;20324;-58
2021/04/26 13:05:13;;;;;;;;;;;;;;;;;;4916682;29;20271;-56
2021/04/26 13:07:38;;;;;;;;;;;;;;;;;;4915684;29;20009;-58
2021/04/26 13:10:03;;;;;;;;;;;;;;;;;;4930846;29;19911;-57
2021/04/26 13:12:28;;;;;;;;;;;;;;;;;;4930556;29;19911;-57
2021/04/26 13:14:54;;;;;;;;;;;;;;;;;;4916187;29;19981;-57
2021/04/26 13:17:19;;;;;;;;;;;;;;;;;;4919654;29;19991;-57
2021/04/26 13:19:45;;;;;;;;;;;;;;;;;;4919956;29;19914;-58
2021/04/26 13:22:10;;;;;;;;;;;;;;;;;;4919491;29;19926;-57
2021/04/26 13:24:37;;;;;;;;;;;;;;;;;;4920084;29;19911;-58
2021/04/26 13:27:02;;;;;;;;;;;;;;;;;;4918261;29;19907;-57
2021/04/26 13:29:27;;;;;;;;;;;;;;;;;;4919885;29;19914;-56
2021/04/26 13:31:54;;;;;;;;;;;;;;;;;;4919502;29;19911;-57
2021/04/26 13:34:19;;;;;;;;;;;;;;;;;;4919644;29;19911;-58
2021/04/26 13:36:44;;;;;;;;;;;;;;;;;;4919852;29;19915;-57
2021/04/26 13:39:10;;;;;;;;;;;;;;;;;;4919485;29;19918;-58
2021/04/26 13:41:35;;;;;;;;;;;;;;;;;;4919510;29;19955;-58
2021/04/26 13:44:00;;;;;;;;;;;;;;;;;;4918959;29;19911;-57
2021/04/26 13:46:26;;;;;;;;;;;;;;;;;;4919411;29;19966;-57
2021/04/26 13:48:51;;;;;;;;;;;;;;;;;;4919469;29;19919;-57
2021/04/26 13:51:16;;;;;;;;;;;;;;;;;;4918082;29;19910;-56
2021/04/26 13:53:41;;;;;;;;;;;;;;;;;;4919513;29;20433;-57
2021/04/26 13:56:07;;;;;;;;;;;;;;;;;;4919145;29;20432;-58
2021/04/26 13:58:32;;;;;;;;;;;;;;;;;;4918912;29;20330;-58
2021/04/26 14:00:57;;;;;;;;;;;;;;;;;;4919080;29;20375;-58
2021/04/26 14:03:22;;;;;;;;;;;;;;;;;;4919015;29;20054;-58
2021/04/26 14:05:48;;;;;;;;;;;;;;;;;;4918007;29;20264;-56
2021/04/26 14:08:13;;;;;;;;;;;;;;;;;;4918694;29;19921;-57
2021/04/26 14:10:38;;;;;;;;;;;;;;;;;;4918247;29;20236;-57
2021/04/26 14:13:03;;;;;;;;;;;;;;;;;;4916360;29;20013;-57
2021/04/26 14:15:29;;;;;;;;;;;;;;;;;;4917774;29;19947;-58
2021/04/26 14:17:54;;;;;;;;;;;;;;;;;;4918813;29;19970;-58
2021/04/26 14:20:19;;;;;;;;;;;;;;;;;;4918659;29;19966;-56
2021/04/26 14:22:44;;;;;;;;;;;;;;;;;;4918891;29;20027;-58
2021/04/26 14:25:09;;;;;;;;;;;;;;;;;;4918275;29;20331;-57
2021/04/26 14:27:35;;;;;;;;;;;;;;;;;;4917716;29;20276;-57
2021/04/26 14:30:00;;;;;;;;;;;;;;;;;;4918486;29;20359;-58
2021/04/26 14:32:25;;;;;;;;;;;;;;;;;;4918595;29;19958;-58
2021/04/26 14:34:50;;;;;;;;;;;;;;;;;;4918626;29;19911;-58
2021/04/26 14:37:16;;;;;;;;;;;;;;;;;;4918541;29;20211;-57
2021/04/26 14:39:41;;;;;;;;;;;;;;;;;;4918862;29;19911;-58
2021/04/26 14:42:06;;;;;;;;;;;;;;;;;;4918022;29;19930;-57
2021/04/26 14:44:31;;;;;;;;;;;;;;;;;;4918603;29;19911;-57
2021/04/26 14:46:57;;;;;;;;;;;;;;;;;;4916914;29;19919;-56
2021/04/26 14:49:22;;;;;;;;;;;;;;;;;;4918382;29;19918;-57
2021/04/26 14:51:47;;;;;;;;;;;;;;;;;;4918234;29;19915;-58
2021/04/26 14:54:12;;;;;;;;;;;;;;;;;;4917802;29;20352;-56
2021/04/26 14:56:38;;;;;;;;;;;;;;;;;;4917381;29;20342;-57
2021/04/26 14:59:03;;;;;;;;;;;;;;;;;;4918037;29;19918;-57
2021/04/26 15:01:28;;;;;;;;;;;;;;;;;;4918351;29;19923;-56
2021/04/26 15:03:53;;;;;;;;;;;;;;;;;;4917362;29;20330;-57
2021/04/26 15:06:18;;;;;;;;;;;;;;;;;;4900838;29;19918;-58
2021/04/26 15:08:44;;;;;;;;;;;;;;;;;;4916705;29;20287;-58
2021/04/26 15:11:09;;;;;;;;;;;;;;;;;;4915830;29;19914;-57
2021/04/26 15:13:34;;;;;;;;;;;;;;;;;;4916202;29;19911;-57
2021/04/26 15:16:00;;;;;;;;;;;;;;;;;;4915312;29;20311;-56
2021/04/26 15:18:25;;;;;;;;;;;;;;;;;;4897443;29;20371;-56
2021/04/26 15:20:50;;;;;;;;;;;;;;;;;;4913668;29;19923;-56
2021/04/26 15:23:15;;;;;;;;;;;;;;;;;;4914783;29;19934;-56
2021/04/26 15:25:41;;;;;;;;;;;;;;;;;;4916839;29;19970;-54
2021/04/26 15:28:06;;;;;;;;;;;;;;;;;;4911216;29;19918;-57
2021/04/26 15:30:31;;;;;;;;;;;;;;;;;;4916740;29;19919;-56
2021/04/26 15:32:56;;;;;;;;;;;;;;;;;;4916853;29;19937;-56
2021/04/26 15:35:22;;;;;;;;;;;;;;;;;;4916661;29;19919;-58
2021/04/26 15:37:47;;;;;;;;;;;;;;;;;;4915970;29;19914;-57
2021/04/26 15:40:12;;;;;;;;;;;;;;;;;;4915784;29;19911;-57
2021/04/26 15:42:37;;;;;;;;;;;;;;;;;;4916890;29;20018;-56
2021/04/26 15:45:05;;;;;;;;;;;;;;;;;;4916923;29;19911;-56
2021/04/26 15:47:30;;;;;;;;;;;;;;;;;;4915911;29;20026;-58
2021/04/26 15:49:56;;;;;;;;;;;;;;;;;;4916882;29;20034;-57
2021/04/26 15:52:21;;;;;;;;;;;;;;;;;;4915168;29;19970;-57
2021/04/26 15:54:46;;;;;;;;;;;;;;;;;;4915831;29;19959;-56
2021/04/26 15:57:11;;;;;;;;;;;;;;;;;;4915248;29;19911;-56
2021/04/26 15:59:37;;;;;;;;;;;;;;;;;;4916633;29;20268;-56
2021/04/26 16:02:02;;;;;;;;;;;;;;;;;;4914259;29;19923;-58
2021/04/26 16:04:27;;;;;;;;;;;;;;;;;;4899588;29;19930;-55
2021/04/26 16:06:53;;;;;;;;;;;;;;;;;;4915934;29;19917;-58
2021/04/26 16:09:18;;;;;;;;;;;;;;;;;;4916751;29;19911;-56
2021/04/26 16:11:43;;;;;;;;;;;;;;;;;;4916656;29;19947;-57
2021/04/26 16:14:08;;;;;;;;;;;;;;;;;;4916749;29;20368;-56
2021/04/26 16:16:34;;;;;;;;;;;;;;;;;;4915529;29;20014;-56
2021/04/26 16:18:59;;;;;;;;;;;;;;;;;;4916317;29;19919;-57
2021/04/26 16:21:24;;;;;;;;;;;;;;;;;;4916517;29;19974;-56
2021/04/26 16:23:49;;;;;;;;;;;;;;;;;;4916653;29;19927;-56
2021/04/26 16:26:14;;;;;;;;;;;;;;;;;;4913913;29;19915;-57
2021/04/26 16:28:40;;;;;;;;;;;;;;;;;;4930853;29;19911;-55
2021/04/26 16:31:05;;;;;;;;;;;;;;;;;;4915344;29;19915;-54
2021/04/26 16:33:30;;;;;;;;;;;;;;;;;;4916119;29;19911;-56
2021/04/26 16:35:58;;;;;;;;;;;;;;;;;;4916622;29;20385;-55
2021/04/26 16:38:23;;;;;;;;;;;;;;;;;;4916113;29;19911;-56
2021/04/26 16:40:48;;;;;;;;;;;;;;;;;;4914946;29;19926;-55